sensor_id;sensor_type;location;lat;lon;timestamp;pressure;altitude;pressure_sealevel;temperature;humidity
67987;BME280;54767;53.800;15.956;2022-09-09T00:01:58;99732.55;;;15.57;63.27
67987;BME280;54767;53.800;15.956;2022-09-09T00:04:34;99733.30;;;15.56;63.43
67987;BME280;54767;53.800;15.956;2022-09-09T00:07:24;99736.54;;;15.53;63.51
67987;BME280;54767;53.800;15.956;2022-09-09T00:15:22;99731.13;;;15.51;63.73
67987;BME280;54767;53.800;15.956;2022-09-09T00:18:03;99725.05;;;15.53;63.79
67987;BME280;54767;53.800;15.956;2022-09-09T00:21:05;99725.54;;;15.55;63.78
67987;BME280;54767;53.800;15.956;2022-09-09T00:23:42;99726.40;;;15.56;63.85
67987;BME280;54767;53.800;15.956;2022-09-09T00:31:42;99726.03;;;15.57;64.03
67987;BME280;54767;53.800;15.956;2022-09-09T00:34:22;99724.21;;;15.59;64.06
67987;BME280;54767;53.800;15.956;2022-09-09T00:36:52;99721.16;;;15.61;63.97
67987;BME280;54767;53.800;15.956;2022-09-09T00:39:31;99717.28;;;15.61;64.08
67987;BME280;54767;53.800;15.956;2022-09-09T00:45:03;99718.80;;;15.56;64.16
67987;BME280;54767;53.800;15.956;2022-09-09T00:47:59;99720.48;;;15.53;64.20
67987;BME280;54767;53.800;15.956;2022-09-09T00:51:07;99724.05;;;15.52;64.34
67987;BME280;54767;53.800;15.956;2022-09-09T00:53:30;99725.99;;;15.52;64.51
67987;BME280;54767;53.800;15.956;2022-09-09T00:56:20;99720.83;;;15.54;64.49
67987;BME280;54767;53.800;15.956;2022-09-09T00:59:00;99726.79;;;15.55;64.57
67987;BME280;54767;53.800;15.956;2022-09-09T01:01:33;99727.83;;;15.56;64.65
67987;BME280;54767;53.800;15.956;2022-09-09T01:04:05;99725.02;;;15.55;64.73
67987;BME280;54767;53.800;15.956;2022-09-09T01:06:37;99725.38;;;15.55;64.71
67987;BME280;54767;53.800;15.956;2022-09-09T01:09:32;99728.55;;;15.55;64.70
67987;BME280;54767;53.800;15.956;2022-09-09T01:19:58;99731.66;;;15.57;64.98
67987;BME280;54767;53.800;15.956;2022-09-09T01:27:44;99743.22;;;15.54;65.23
67987;BME280;54767;53.800;15.956;2022-09-09T01:30:17;99739.63;;;15.56;65.33
67987;BME280;54767;53.800;15.956;2022-09-09T01:32:49;99745.73;;;15.59;65.27
67987;BME280;54767;53.800;15.956;2022-09-09T01:35:32;99750.06;;;15.62;65.22
67987;BME280;54767;53.800;15.956;2022-09-09T01:38:03;99750.39;;;15.63;65.35
67987;BME280;54767;53.800;15.956;2022-09-09T01:40:32;99747.75;;;15.63;65.31
67987;BME280;54767;53.800;15.956;2022-09-09T01:43:00;99748.12;;;15.63;65.38
67987;BME280;54767;53.800;15.956;2022-09-09T01:45:28;99753.91;;;15.63;65.38
67987;BME280;54767;53.800;15.956;2022-09-09T01:47:57;99749.82;;;15.64;65.39
67987;BME280;54767;53.800;15.956;2022-09-09T01:50:26;99753.17;;;15.65;65.36
67987;BME280;54767;53.800;15.956;2022-09-09T01:52:57;99754.88;;;15.68;65.46
67987;BME280;54767;53.800;15.956;2022-09-09T01:55:31;99753.98;;;15.68;65.64
67987;BME280;54767;53.800;15.956;2022-09-09T02:01:38;99753.46;;;15.68;65.66
67987;BME280;54767;53.800;15.956;2022-09-09T02:03:57;99751.89;;;15.66;65.65
67987;BME280;54767;53.800;15.956;2022-09-09T02:06:35;99756.30;;;15.66;65.65
67987;BME280;54767;53.800;15.956;2022-09-09T02:09:06;99755.57;;;15.67;65.65
67987;BME280;54767;53.800;15.956;2022-09-09T02:11:35;99756.80;;;15.67;65.66
67987;BME280;54767;53.800;15.956;2022-09-09T02:14:12;99758.52;;;15.70;65.67
67987;BME280;54767;53.800;15.956;2022-09-09T02:16:46;99754.99;;;15.70;65.79
67987;BME280;54767;53.800;15.956;2022-09-09T02:19:27;99756.41;;;15.70;65.79
67987;BME280;54767;53.800;15.956;2022-09-09T02:22:00;99759.05;;;15.70;65.81
67987;BME280;54767;53.800;15.956;2022-09-09T02:24:31;99764.35;;;15.70;65.86
67987;BME280;54767;53.800;15.956;2022-09-09T02:27:04;99767.86;;;15.71;65.83
67987;BME280;54767;53.800;15.956;2022-09-09T02:29:39;99765.15;;;15.73;65.94
67987;BME280;54767;53.800;15.956;2022-09-09T02:32:12;99767.04;;;15.75;65.92
67987;BME280;54767;53.800;15.956;2022-09-09T02:34:48;99769.80;;;15.77;65.89
67987;BME280;54767;53.800;15.956;2022-09-09T02:37:24;99771.90;;;15.78;65.87
67987;BME280;54767;53.800;15.956;2022-09-09T02:39:56;99772.40;;;15.79;65.93
67987;BME280;54767;53.800;15.956;2022-09-09T02:42:24;99768.17;;;15.78;65.97
67987;BME280;54767;53.800;15.956;2022-09-09T02:44:52;99766.57;;;15.79;66.10
67987;BME280;54767;53.800;15.956;2022-09-09T02:47:41;99760.05;;;15.79;66.08
67987;BME280;54767;53.800;15.956;2022-09-09T02:57:56;99764.64;;;15.86;66.17
67987;BME280;54767;53.800;15.956;2022-09-09T03:00:27;99764.98;;;15.86;66.13
67987;BME280;54767;53.800;15.956;2022-09-09T03:02:56;99764.27;;;15.87;66.14
67987;BME280;54767;53.800;15.956;2022-09-09T03:05:27;99764.57;;;15.88;66.16
67987;BME280;54767;53.800;15.956;2022-09-09T03:07:55;99764.92;;;15.88;66.21
67987;BME280;54767;53.800;15.956;2022-09-09T03:10:24;99766.13;;;15.89;66.16
67987;BME280;54767;53.800;15.956;2022-09-09T03:12:53;99764.84;;;15.91;66.40
67987;BME280;54767;53.800;15.956;2022-09-09T03:15:21;99762.48;;;15.93;66.33
67987;BME280;54767;53.800;15.956;2022-09-09T03:17:49;99767.75;;;15.95;66.37
67987;BME280;54767;53.800;15.956;2022-09-09T03:20:17;99766.83;;;15.95;66.42
67987;BME280;54767;53.800;15.956;2022-09-09T03:22:45;99769.45;;;15.96;66.50
67987;BME280;54767;53.800;15.956;2022-09-09T03:25:13;99773.54;;;15.96;66.45
67987;BME280;54767;53.800;15.956;2022-09-09T03:27:41;99778.48;;;15.96;66.53
67987;BME280;54767;53.800;15.956;2022-09-09T03:30:10;99780.01;;;15.98;66.61
67987;BME280;54767;53.800;15.956;2022-09-09T03:32:38;99782.79;;;15.99;66.52
67987;BME280;54767;53.800;15.956;2022-09-09T03:35:08;99784.18;;;16.00;66.58
67987;BME280;54767;53.800;15.956;2022-09-09T03:37:36;99786.45;;;16.01;66.60
67987;BME280;54767;53.800;15.956;2022-09-09T03:40:07;99783.13;;;16.00;66.63
67987;BME280;54767;53.800;15.956;2022-09-09T03:42:36;99786.48;;;16.00;66.52
67987;BME280;54767;53.800;15.956;2022-09-09T03:45:06;99786.56;;;15.97;66.73
67987;BME280;54767;53.800;15.956;2022-09-09T03:47:35;99784.45;;;15.97;66.71
67987;BME280;54767;53.800;15.956;2022-09-09T03:50:05;99786.21;;;15.97;66.71
67987;BME280;54767;53.800;15.956;2022-09-09T03:52:37;99782.98;;;15.98;66.70
67987;BME280;54767;53.800;15.956;2022-09-09T03:55:06;99786.27;;;16.01;66.67
67987;BME280;54767;53.800;15.956;2022-09-09T03:57:35;99784.63;;;16.03;66.82
67987;BME280;54767;53.800;15.956;2022-09-09T04:00:05;99787.94;;;16.04;66.83
67987;BME280;54767;53.800;15.956;2022-09-09T04:02:34;99794.64;;;16.05;66.84
67987;BME280;54767;53.800;15.956;2022-09-09T04:05:02;99791.45;;;16.05;66.89
67987;BME280;54767;53.800;15.956;2022-09-09T04:07:31;99790.92;;;16.05;66.91
67987;BME280;54767;53.800;15.956;2022-09-09T04:10:00;99793.41;;;16.05;66.94
67987;BME280;54767;53.800;15.956;2022-09-09T04:12:30;99791.64;;;16.06;66.89
67987;BME280;54767;53.800;15.956;2022-09-09T04:14:58;99794.73;;;16.08;67.15
67987;BME280;54767;53.800;15.956;2022-09-09T04:17:26;99795.20;;;16.11;66.99
67987;BME280;54767;53.800;15.956;2022-09-09T04:19:55;99794.64;;;16.12;66.98
67987;BME280;54767;53.800;15.956;2022-09-09T04:22:23;99792.30;;;16.13;67.06
67987;BME280;54767;53.800;15.956;2022-09-09T04:24:51;99801.47;;;16.13;67.00
67987;BME280;54767;53.800;15.956;2022-09-09T04:27:19;99807.12;;;16.14;67.02
67987;BME280;54767;53.800;15.956;2022-09-09T04:29:47;99811.54;;;16.13;67.04
67987;BME280;54767;53.800;15.956;2022-09-09T04:32:15;99813.29;;;16.14;67.03
67987;BME280;54767;53.800;15.956;2022-09-09T04:34:43;99814.80;;;16.16;67.03
67987;BME280;54767;53.800;15.956;2022-09-09T04:37:12;99818.42;;;16.19;67.05
67987;BME280;54767;53.800;15.956;2022-09-09T04:39:41;99824.77;;;16.20;67.19
67987;BME280;54767;53.800;15.956;2022-09-09T04:42:10;99821.94;;;16.20;67.30
67987;BME280;54767;53.800;15.956;2022-09-09T04:44:38;99827.05;;;16.20;67.11
67987;BME280;54767;53.800;15.956;2022-09-09T04:47:07;99833.04;;;16.21;67.10
67987;BME280;54767;53.800;15.956;2022-09-09T04:49:35;99838.80;;;16.23;67.23
67987;BME280;54767;53.800;15.956;2022-09-09T04:52:04;99842.45;;;16.25;67.29
67987;BME280;54767;53.800;15.956;2022-09-09T04:54:32;99844.34;;;16.27;67.28
67987;BME280;54767;53.800;15.956;2022-09-09T04:57:00;99845.87;;;16.29;67.27
67987;BME280;54767;53.800;15.956;2022-09-09T04:59:29;99847.09;;;16.31;67.38
67987;BME280;54767;53.800;15.956;2022-09-09T05:01:58;99843.88;;;16.31;67.60
67987;BME280;54767;53.800;15.956;2022-09-09T05:04:27;99852.50;;;16.33;67.67
67987;BME280;54767;53.800;15.956;2022-09-09T05:06:56;99849.17;;;16.31;67.82
67987;BME280;54767;53.800;15.956;2022-09-09T05:09:25;99848.78;;;16.33;67.72
67987;BME280;54767;53.800;15.956;2022-09-09T05:11:53;99849.77;;;16.36;67.84
67987;BME280;54767;53.800;15.956;2022-09-09T05:14:21;99849.35;;;16.37;67.91
67987;BME280;54767;53.800;15.956;2022-09-09T05:16:49;99847.38;;;16.39;67.96
67987;BME280;54767;53.800;15.956;2022-09-09T05:19:17;99852.65;;;16.39;67.85
67987;BME280;54767;53.800;15.956;2022-09-09T05:21:47;99855.67;;;16.39;67.73
67987;BME280;54767;53.800;15.956;2022-09-09T05:24:15;99856.92;;;16.38;67.74
67987;BME280;54767;53.800;15.956;2022-09-09T05:26:44;99860.95;;;16.40;67.88
67987;BME280;54767;53.800;15.956;2022-09-09T05:29:12;99866.15;;;16.43;67.81
67987;BME280;54767;53.800;15.956;2022-09-09T05:31:40;99865.60;;;16.44;67.73
67987;BME280;54767;53.800;15.956;2022-09-09T05:34:09;99867.83;;;16.46;67.57
67987;BME280;54767;53.800;15.956;2022-09-09T05:36:37;99867.42;;;16.48;67.68
67987;BME280;54767;53.800;15.956;2022-09-09T05:39:05;99874.10;;;16.50;67.75
67987;BME280;54767;53.800;15.956;2022-09-09T05:41:33;99874.95;;;16.50;67.74
67987;BME280;54767;53.800;15.956;2022-09-09T05:44:03;99876.61;;;16.54;68.01
67987;BME280;54767;53.800;15.956;2022-09-09T05:46:32;99875.72;;;16.55;68.01
67987;BME280;54767;53.800;15.956;2022-09-09T05:49:02;99883.79;;;16.57;67.85
67987;BME280;54767;53.800;15.956;2022-09-09T05:51:30;99879.13;;;16.59;67.84
67987;BME280;54767;53.800;15.956;2022-09-09T05:53:59;99877.30;;;16.61;68.01
67987;BME280;54767;53.800;15.956;2022-09-09T05:56:28;99880.25;;;16.63;67.88
67987;BME280;54767;53.800;15.956;2022-09-09T05:58:56;99883.96;;;16.63;67.87
67987;BME280;54767;53.800;15.956;2022-09-09T06:01:29;99887.64;;;16.65;67.80
67987;BME280;54767;53.800;15.956;2022-09-09T06:03:58;99887.90;;;16.68;67.76
67987;BME280;54767;53.800;15.956;2022-09-09T06:06:31;99889.19;;;16.71;68.05
67987;BME280;54767;53.800;15.956;2022-09-09T06:09:06;99889.83;;;16.75;68.11
67987;BME280;54767;53.800;15.956;2022-09-09T06:11:38;99891.00;;;16.78;68.08
67987;BME280;54767;53.800;15.956;2022-09-09T06:14:08;99890.76;;;16.80;68.39
67987;BME280;54767;53.800;15.956;2022-09-09T06:16:36;99887.00;;;16.82;68.14
67987;BME280;54767;53.800;15.956;2022-09-09T06:19:05;99888.02;;;16.83;68.17
67987;BME280;54767;53.800;15.956;2022-09-09T06:21:36;99889.86;;;16.87;68.41
67987;BME280;54767;53.800;15.956;2022-09-09T06:24:08;99891.02;;;16.89;68.23
67987;BME280;54767;53.800;15.956;2022-09-09T06:26:38;99896.75;;;16.92;68.41
67987;BME280;54767;53.800;15.956;2022-09-09T06:29:09;99893.80;;;16.96;68.36
67987;BME280;54767;53.800;15.956;2022-09-09T06:31:38;99897.25;;;16.99;68.45
67987;BME280;54767;53.800;15.956;2022-09-09T06:34:07;99894.36;;;17.02;68.32
67987;BME280;54767;53.800;15.956;2022-09-09T06:36:38;99896.36;;;17.05;68.27
67987;BME280;54767;53.800;15.956;2022-09-09T06:39:06;99895.55;;;17.09;68.30
67987;BME280;54767;53.800;15.956;2022-09-09T06:41:41;99894.18;;;17.13;68.18
67987;BME280;54767;53.800;15.956;2022-09-09T06:44:10;99885.73;;;17.18;68.32
67987;BME280;54767;53.800;15.956;2022-09-09T06:46:41;99886.86;;;17.21;68.30
67987;BME280;54767;53.800;15.956;2022-09-09T06:49:09;99888.04;;;17.24;67.91
67987;BME280;54767;53.800;15.956;2022-09-09T06:51:37;99886.52;;;17.26;68.05
67987;BME280;54767;53.800;15.956;2022-09-09T06:54:12;99890.39;;;17.27;67.99
67987;BME280;54767;53.800;15.956;2022-09-09T06:56:41;99893.69;;;17.30;68.06
67987;BME280;54767;53.800;15.956;2022-09-09T06:59:11;99894.80;;;17.34;67.97
67987;BME280;54767;53.800;15.956;2022-09-09T07:01:42;99899.80;;;17.38;67.93
67987;BME280;54767;53.800;15.956;2022-09-09T07:04:19;99899.47;;;17.43;68.03
67987;BME280;54767;53.800;15.956;2022-09-09T07:06:47;99901.64;;;17.47;67.91
67987;BME280;54767;53.800;15.956;2022-09-09T07:09:15;99908.77;;;17.51;67.69
67987;BME280;54767;53.800;15.956;2022-09-09T07:11:46;99907.31;;;17.52;67.87
67987;BME280;54767;53.800;15.956;2022-09-09T07:14:15;99903.58;;;17.52;67.85
67987;BME280;54767;53.800;15.956;2022-09-09T07:16:44;99907.59;;;17.54;67.62
67987;BME280;54767;53.800;15.956;2022-09-09T07:19:13;99915.12;;;17.57;67.69
67987;BME280;54767;53.800;15.956;2022-09-09T07:21:42;99916.95;;;17.60;67.68
67987;BME280;54767;53.800;15.956;2022-09-09T07:24:11;99916.51;;;17.63;67.78
67987;BME280;54767;53.800;15.956;2022-09-09T07:26:40;99918.56;;;17.65;67.64
67987;BME280;54767;53.800;15.956;2022-09-09T07:29:08;99919.42;;;17.66;67.70
67987;BME280;54767;53.800;15.956;2022-09-09T07:31:39;99924.36;;;17.67;67.62
67987;BME280;54767;53.800;15.956;2022-09-09T07:34:07;99922.02;;;17.68;67.64
67987;BME280;54767;53.800;15.956;2022-09-09T07:36:38;99930.77;;;17.71;67.61
67987;BME280;54767;53.800;15.956;2022-09-09T07:39:09;99932.47;;;17.74;67.75
67987;BME280;54767;53.800;15.956;2022-09-09T07:41:43;99939.80;;;17.76;67.68
67987;BME280;54767;53.800;15.956;2022-09-09T07:44:14;99941.99;;;17.81;67.63
67987;BME280;54767;53.800;15.956;2022-09-09T07:46:43;99945.21;;;17.85;67.71
67987;BME280;54767;53.800;15.956;2022-09-09T07:49:13;99943.69;;;17.89;67.85
67987;BME280;54767;53.800;15.956;2022-09-09T07:51:44;99945.45;;;17.89;67.80
67987;BME280;54767;53.800;15.956;2022-09-09T07:54:14;99941.86;;;17.90;67.82
67987;BME280;54767;53.800;15.956;2022-09-09T07:56:43;99944.40;;;17.93;67.74
67987;BME280;54767;53.800;15.956;2022-09-09T07:59:11;99943.86;;;17.94;67.87
67987;BME280;54767;53.800;15.956;2022-09-09T08:01:45;99946.55;;;17.98;67.73
67987;BME280;54767;53.800;15.956;2022-09-09T08:04:17;99950.59;;;18.00;67.63
67987;BME280;54767;53.800;15.956;2022-09-09T08:06:52;99947.02;;;18.01;67.97
67987;BME280;54767;53.800;15.956;2022-09-09T08:09:22;99945.42;;;18.01;68.11
67987;BME280;54767;53.800;15.956;2022-09-09T08:11:52;99950.67;;;18.02;68.17
67987;BME280;54767;53.800;15.956;2022-09-09T08:14:20;99950.73;;;18.06;68.27
67987;BME280;54767;53.800;15.956;2022-09-09T08:16:50;99957.31;;;18.10;68.13
67987;BME280;54767;53.800;15.956;2022-09-09T08:19:22;99955.55;;;18.15;68.10
67987;BME280;54767;53.800;15.956;2022-09-09T08:21:50;99958.62;;;18.19;67.97
67987;BME280;54767;53.800;15.956;2022-09-09T08:24:18;99961.02;;;18.21;67.81
67987;BME280;54767;53.800;15.956;2022-09-09T08:26:48;99956.73;;;18.23;67.96
67987;BME280;54767;53.800;15.956;2022-09-09T08:29:17;99961.77;;;18.25;67.96
67987;BME280;54767;53.800;15.956;2022-09-09T08:31:48;99959.70;;;18.28;68.04
67987;BME280;54767;53.800;15.956;2022-09-09T08:34:17;99962.36;;;18.34;68.03
67987;BME280;54767;53.800;15.956;2022-09-09T08:36:49;99972.33;;;18.38;67.62
67987;BME280;54767;53.800;15.956;2022-09-09T08:39:19;99970.09;;;18.41;67.56
67987;BME280;54767;53.800;15.956;2022-09-09T08:53:16;99968.48;;;18.46;66.89
67987;BME280;54767;53.800;15.956;2022-09-09T08:55:48;99974.64;;;18.47;66.76
67987;BME280;54767;53.800;15.956;2022-09-09T08:58:23;99977.06;;;18.49;66.82
67987;BME280;54767;53.800;15.956;2022-09-09T09:12:21;99981.06;;;18.61;66.86
67987;BME280;54767;53.800;15.956;2022-09-09T09:14:53;99980.27;;;18.69;66.76
67987;BME280;54767;53.800;15.956;2022-09-09T09:17:28;99975.09;;;18.76;66.63
67987;BME280;54767;53.800;15.956;2022-09-09T09:19:59;99977.46;;;18.84;66.61
67987;BME280;54767;53.800;15.956;2022-09-09T09:22:42;99977.20;;;18.91;66.39
67987;BME280;54767;53.800;15.956;2022-09-09T09:25:23;99977.52;;;18.97;66.56
67987;BME280;54767;53.800;15.956;2022-09-09T09:28:11;99975.57;;;19.03;66.34
67987;BME280;54767;53.800;15.956;2022-09-09T09:30:55;99976.63;;;19.07;66.37
67987;BME280;54767;53.800;15.956;2022-09-09T09:36:04;99983.76;;;19.15;66.09
67987;BME280;54767;53.800;15.956;2022-09-09T09:38:36;99980.16;;;19.17;65.95
67987;BME280;54767;53.800;15.956;2022-09-09T09:43:59;99986.11;;;19.19;65.67
67987;BME280;54767;53.800;15.956;2022-09-09T09:46:28;99990.80;;;19.22;65.68
67987;BME280;54767;53.800;15.956;2022-09-09T09:49:02;99991.96;;;19.24;65.60
67987;BME280;54767;53.800;15.956;2022-09-09T09:51:33;99991.16;;;19.26;65.61
67987;BME280;54767;53.800;15.956;2022-09-09T09:56:41;99990.62;;;19.31;65.54
67987;BME280;54767;53.800;15.956;2022-09-09T10:02:31;99993.09;;;19.41;65.66
67987;BME280;54767;53.800;15.956;2022-09-09T10:05:13;99992.39;;;19.50;65.59
67987;BME280;54767;53.800;15.956;2022-09-09T10:07:41;99992.88;;;19.56;65.55
67987;BME280;54767;53.800;15.956;2022-09-09T10:10:20;99986.66;;;19.60;65.44
67987;BME280;54767;53.800;15.956;2022-09-09T10:21:24;99976.48;;;19.72;65.01
67987;BME280;54767;53.800;15.956;2022-09-09T10:35:03;99979.60;;;19.96;64.83
67987;BME280;54767;53.800;15.956;2022-09-09T10:37:44;99985.59;;;20.05;65.09
67987;BME280;54767;53.800;15.956;2022-09-09T10:40:33;99980.44;;;20.14;64.74
67987;BME280;54767;53.800;15.956;2022-09-09T10:43:20;99988.33;;;20.17;64.41
67987;BME280;54767;53.800;15.956;2022-09-09T10:46:01;99988.44;;;20.18;64.28
67987;BME280;54767;53.800;15.956;2022-09-09T10:48:40;99988.13;;;20.21;64.28
67987;BME280;54767;53.800;15.956;2022-09-09T10:56:21;99984.75;;;20.35;64.21
67987;BME280;54767;53.800;15.956;2022-09-09T10:59:20;99989.27;;;20.41;64.07
67987;BME280;54767;53.800;15.956;2022-09-09T11:01:57;99993.66;;;20.46;63.64
67987;BME280;54767;53.800;15.956;2022-09-09T11:04:35;99993.95;;;20.48;63.53
67987;BME280;54767;53.800;15.956;2022-09-09T11:07:10;99994.20;;;20.50;63.46
67987;BME280;54767;53.800;15.956;2022-09-09T11:09:49;99993.55;;;20.53;63.27
67987;BME280;54767;53.800;15.956;2022-09-09T11:12:22;99995.91;;;20.57;63.20
67987;BME280;54767;53.800;15.956;2022-09-09T11:14:59;100000.77;;;20.60;63.43
67987;BME280;54767;53.800;15.956;2022-09-09T11:17:48;100004.23;;;20.62;63.17
67987;BME280;54767;53.800;15.956;2022-09-09T11:20:18;100010.58;;;20.63;63.07
67987;BME280;54767;53.800;15.956;2022-09-09T11:22:54;100010.48;;;20.61;62.95
67987;BME280;54767;53.800;15.956;2022-09-09T11:25:37;100011.35;;;20.62;62.96
67987;BME280;54767;53.800;15.956;2022-09-09T11:28:32;100010.46;;;20.62;62.70
67987;BME280;54767;53.800;15.956;2022-09-09T11:31:33;100015.33;;;20.64;62.54
67987;BME280;54767;53.800;15.956;2022-09-09T11:34:21;100013.20;;;20.68;62.58
67987;BME280;54767;53.800;15.956;2022-09-09T11:37:17;100009.82;;;20.72;62.62
67987;BME280;54767;53.800;15.956;2022-09-09T11:42:38;100008.70;;;20.86;62.99
67987;BME280;54767;53.800;15.956;2022-09-09T11:45:23;100010.36;;;20.92;62.76
67987;BME280;54767;53.800;15.956;2022-09-09T11:47:55;100009.83;;;20.92;62.18
67987;BME280;54767;53.800;15.956;2022-09-09T11:53:16;100009.71;;;20.91;62.14
67987;BME280;54767;53.800;15.956;2022-09-09T11:56:04;100010.61;;;20.90;61.98
67987;BME280;54767;53.800;15.956;2022-09-09T11:58:44;100012.64;;;20.89;61.86
67987;BME280;54767;53.800;15.956;2022-09-09T12:01:35;100007.90;;;20.88;61.93
67987;BME280;54767;53.800;15.956;2022-09-09T12:06:57;100004.59;;;20.86;61.77
67987;BME280;54767;53.800;15.956;2022-09-09T12:09:47;100009.16;;;20.88;61.67
67987;BME280;54767;53.800;15.956;2022-09-09T12:12:23;100005.59;;;20.92;61.94
67987;BME280;54767;53.800;15.956;2022-09-09T12:17:44;100001.31;;;21.04;62.05
67987;BME280;54767;53.800;15.956;2022-09-09T12:32:09;99998.76;;;21.13;61.10
67987;BME280;54767;53.800;15.956;2022-09-09T12:35:40;99999.02;;;21.15;61.15
67987;BME280;54767;53.800;15.956;2022-09-09T12:37:46;99998.53;;;21.18;61.49
67987;BME280;54767;53.800;15.956;2022-09-09T12:42:46;99994.84;;;21.29;61.09
67987;BME280;54767;53.800;15.956;2022-09-09T12:45:20;99994.85;;;21.32;61.13
67987;BME280;54767;53.800;15.956;2022-09-09T12:50:31;99984.58;;;21.35;61.02
67987;BME280;54767;53.800;15.956;2022-09-09T12:53:07;99986.20;;;21.34;60.84
67987;BME280;54767;53.800;15.956;2022-09-09T12:55:38;99982.48;;;21.34;60.72
67987;BME280;54767;53.800;15.956;2022-09-09T12:58:07;99980.29;;;21.36;60.90
67987;BME280;54767;53.800;15.956;2022-09-09T13:00:35;99979.08;;;21.39;60.71
67987;BME280;54767;53.800;15.956;2022-09-09T13:03:16;99979.50;;;21.46;60.54
67987;BME280;54767;53.800;15.956;2022-09-09T13:05:45;99979.20;;;21.52;60.72
67987;BME280;54767;53.800;15.956;2022-09-09T13:08:15;99979.13;;;21.57;60.48
67987;BME280;54767;53.800;15.956;2022-09-09T13:11:02;99979.05;;;21.59;59.91
67987;BME280;54767;53.800;15.956;2022-09-09T13:13:36;99976.67;;;21.60;59.97
67987;BME280;54767;53.800;15.956;2022-09-09T13:16:22;99970.39;;;21.61;59.75
67987;BME280;54767;53.800;15.956;2022-09-09T13:18:51;99969.67;;;21.61;59.95
67987;BME280;54767;53.800;15.956;2022-09-09T13:21:31;99966.13;;;21.61;59.76
67987;BME280;54767;53.800;15.956;2022-09-09T13:24:00;99957.45;;;21.63;59.67
67987;BME280;54767;53.800;15.956;2022-09-09T13:26:31;99962.14;;;21.66;59.38
67987;BME280;54767;53.800;15.956;2022-09-09T13:29:17;99958.96;;;21.69;59.35
67987;BME280;54767;53.800;15.956;2022-09-09T13:31:47;99957.97;;;21.71;59.36
67987;BME280;54767;53.800;15.956;2022-09-09T13:34:30;99957.60;;;21.72;58.77
67987;BME280;54767;53.800;15.956;2022-09-09T13:37:01;99952.46;;;21.71;58.97
67987;BME280;54767;53.800;15.956;2022-09-09T13:39:30;99951.25;;;21.74;58.97
67987;BME280;54767;53.800;15.956;2022-09-09T13:41:59;99947.92;;;21.80;58.85
67987;BME280;54767;53.800;15.956;2022-09-09T13:44:33;99953.02;;;21.85;58.79
67987;BME280;54767;53.800;15.956;2022-09-09T13:47:26;99957.17;;;21.91;58.64
67987;BME280;54767;53.800;15.956;2022-09-09T13:49:55;99950.22;;;21.95;58.69
67987;BME280;54767;53.800;15.956;2022-09-09T13:52:26;99951.27;;;21.95;58.35
67987;BME280;54767;53.800;15.956;2022-09-09T13:54:55;99954.31;;;21.95;58.23
67987;BME280;54767;53.800;15.956;2022-09-09T13:57:24;99949.92;;;21.94;58.06
67987;BME280;54767;53.800;15.956;2022-09-09T13:59:54;99953.69;;;21.94;58.17
67987;BME280;54767;53.800;15.956;2022-09-09T14:02:32;99952.52;;;21.95;57.93
67987;BME280;54767;53.800;15.956;2022-09-09T14:05:01;99947.77;;;21.98;57.77
67987;BME280;54767;53.800;15.956;2022-09-09T14:07:29;99940.29;;;22.01;57.68
67987;BME280;54767;53.800;15.956;2022-09-09T14:09:58;99939.48;;;22.07;57.50
67987;BME280;54767;53.800;15.956;2022-09-09T14:12:27;99946.89;;;22.11;57.41
67987;BME280;54767;53.800;15.956;2022-09-09T14:14:55;99944.55;;;22.16;57.64
67987;BME280;54767;53.800;15.956;2022-09-09T14:17:23;99948.98;;;22.21;57.44
67987;BME280;54767;53.800;15.956;2022-09-09T14:19:58;99950.03;;;22.21;57.27
67987;BME280;54767;53.800;15.956;2022-09-09T14:22:26;99947.67;;;22.18;57.19
67987;BME280;54767;53.800;15.956;2022-09-09T14:24:56;99950.98;;;22.15;57.22
67987;BME280;54767;53.800;15.956;2022-09-09T14:27:25;99950.23;;;22.12;56.90
67987;BME280;54767;53.800;15.956;2022-09-09T14:29:56;99948.81;;;22.12;56.86
67987;BME280;54767;53.800;15.956;2022-09-09T14:32:26;99944.90;;;22.16;57.00
67987;BME280;54767;53.800;15.956;2022-09-09T14:34:54;99943.67;;;22.20;56.91
67987;BME280;54767;53.800;15.956;2022-09-09T14:37:22;99942.59;;;22.23;56.46
67987;BME280;54767;53.800;15.956;2022-09-09T14:39:55;99939.67;;;22.24;56.22
67987;BME280;54767;53.800;15.956;2022-09-09T14:42:30;99940.73;;;22.25;56.05
67987;BME280;54767;53.800;15.956;2022-09-09T14:44:59;99941.61;;;22.25;55.79
67987;BME280;54767;53.800;15.956;2022-09-09T14:47:27;99942.82;;;22.26;55.68
67987;BME280;54767;53.800;15.956;2022-09-09T14:49:55;99941.73;;;22.26;55.47
67987;BME280;54767;53.800;15.956;2022-09-09T14:52:24;99936.65;;;22.24;55.33
67987;BME280;54767;53.800;15.956;2022-09-09T14:54:53;99936.73;;;22.23;55.00
67987;BME280;54767;53.800;15.956;2022-09-09T14:57:21;99937.45;;;22.19;55.31
67987;BME280;54767;53.800;15.956;2022-09-09T14:59:49;99934.48;;;22.18;54.82
67987;BME280;54767;53.800;15.956;2022-09-09T15:02:18;99928.52;;;22.16;54.69
67987;BME280;54767;53.800;15.956;2022-09-09T15:04:46;99928.63;;;22.13;54.71
67987;BME280;54767;53.800;15.956;2022-09-09T15:07:14;99927.84;;;22.11;54.81
67987;BME280;54767;53.800;15.956;2022-09-09T15:09:42;99924.88;;;22.10;54.83
67987;BME280;54767;53.800;15.956;2022-09-09T15:12:10;99926.66;;;22.06;54.80
67987;BME280;54767;53.800;15.956;2022-09-09T15:14:39;99926.39;;;22.04;54.48
67987;BME280;54767;53.800;15.956;2022-09-09T15:17:07;99923.16;;;22.02;54.60
67987;BME280;54767;53.800;15.956;2022-09-09T15:19:36;99921.16;;;21.99;54.47
67987;BME280;54767;53.800;15.956;2022-09-09T15:22:05;99921.74;;;21.94;54.53
67987;BME280;54767;53.800;15.956;2022-09-09T15:24:34;99918.05;;;21.90;54.63